sensor_id;sensor_type;location;lat;lon;timestamp;P1;durP1;ratioP1;P2;durP2;ratioP2
14205;SDS011;7186;48.800;9.216;2022-07-06T00:01:16;5.03;;;2.40;;
14205;SDS011;7186;48.800;9.216;2022-07-06T00:03:42;4.33;;;2.50;;
14205;SDS011;7186;48.800;9.216;2022-07-06T00:06:07;3.23;;;2.50;;
14205;SDS011;7186;48.800;9.216;2022-07-06T00:08:32;4.93;;;2.50;;
14205;SDS011;7186;48.800;9.216;2022-07-06T00:10:58;4.43;;;2.30;;
14205;SDS011;7186;48.800;9.216;2022-07-06T00:13:23;4.20;;;2.40;;
14205;SDS011;7186;48.800;9.216;2022-07-06T00:15:48;5.73;;;2.57;;
14205;SDS011;7186;48.800;9.216;2022-07-06T00:18:13;2.80;;;2.50;;
14205;SDS011;7186;48.800;9.216;2022-07-06T00:20:38;3.27;;;2.50;;
14205;SDS011;7186;48.800;9.216;2022-07-06T00:23:04;3.17;;;2.73;;
14205;SDS011;7186;48.800;9.216;2022-07-06T00:25:29;2.93;;;2.60;;
14205;SDS011;7186;48.800;9.216;2022-07-06T00:27:54;6.23;;;2.90;;
14205;SDS011;7186;48.800;9.216;2022-07-06T00:30:19;4.10;;;2.90;;
14205;SDS011;7186;48.800;9.216;2022-07-06T00:32:45;5.50;;;3.20;;
14205;SDS011;7186;48.800;9.216;2022-07-06T00:35:10;3.40;;;3.10;;
14205;SDS011;7186;48.800;9.216;2022-07-06T00:37:35;4.10;;;2.63;;
14205;SDS011;7186;48.800;9.216;2022-07-06T00:40:00;5.03;;;2.80;;
14205;SDS011;7186;48.800;9.216;2022-07-06T00:42:25;4.03;;;2.83;;
14205;SDS011;7186;48.800;9.216;2022-07-06T00:44:51;4.10;;;2.97;;
14205;SDS011;7186;48.800;9.216;2022-07-06T00:47:16;4.57;;;2.80;;
14205;SDS011;7186;48.800;9.216;2022-07-06T00:49:41;4.40;;;2.57;;
14205;SDS011;7186;48.800;9.216;2022-07-06T00:52:25;3.77;;;2.57;;
14205;SDS011;7186;48.800;9.216;2022-07-06T00:54:50;3.30;;;2.40;;
14205;SDS011;7186;48.800;9.216;2022-07-06T00:57:16;4.13;;;2.63;;
14205;SDS011;7186;48.800;9.216;2022-07-06T00:59:41;3.93;;;3.10;;
14205;SDS011;7186;48.800;9.216;2022-07-06T01:02:07;5.77;;;2.80;;
14205;SDS011;7186;48.800;9.216;2022-07-06T01:04:32;4.23;;;2.50;;
14205;SDS011;7186;48.800;9.216;2022-07-06T01:06:58;2.90;;;2.60;;
14205;SDS011;7186;48.800;9.216;2022-07-06T01:09:23;4.67;;;2.80;;
14205;SDS011;7186;48.800;9.216;2022-07-06T01:11:48;7.97;;;2.90;;
14205;SDS011;7186;48.800;9.216;2022-07-06T01:14:13;8.30;;;2.60;;
14205;SDS011;7186;48.800;9.216;2022-07-06T01:16:39;4.33;;;2.70;;
14205;SDS011;7186;48.800;9.216;2022-07-06T01:19:04;3.50;;;2.80;;
14205;SDS011;7186;48.800;9.216;2022-07-06T01:21:29;3.20;;;2.70;;
14205;SDS011;7186;48.800;9.216;2022-07-06T01:23:55;3.40;;;2.83;;
14205;SDS011;7186;48.800;9.216;2022-07-06T01:26:20;3.37;;;2.80;;
14205;SDS011;7186;48.800;9.216;2022-07-06T01:28:47;4.47;;;2.40;;
14205;SDS011;7186;48.800;9.216;2022-07-06T01:31:13;2.90;;;2.70;;
14205;SDS011;7186;48.800;9.216;2022-07-06T01:33:39;4.50;;;2.80;;
14205;SDS011;7186;48.800;9.216;2022-07-06T01:36:04;3.33;;;2.57;;
14205;SDS011;7186;48.800;9.216;2022-07-06T01:38:29;8.70;;;2.80;;
14205;SDS011;7186;48.800;9.216;2022-07-06T01:40:54;3.80;;;2.40;;
14205;SDS011;7186;48.800;9.216;2022-07-06T01:43:20;2.93;;;2.57;;
14205;SDS011;7186;48.800;9.216;2022-07-06T01:45:45;2.63;;;2.43;;
14205;SDS011;7186;48.800;9.216;2022-07-06T01:48:10;2.90;;;2.63;;
14205;SDS011;7186;48.800;9.216;2022-07-06T01:50:35;3.37;;;2.53;;
14205;SDS011;7186;48.800;9.216;2022-07-06T01:53:01;4.13;;;2.90;;
14205;SDS011;7186;48.800;9.216;2022-07-06T01:55:26;3.60;;;2.40;;
14205;SDS011;7186;48.800;9.216;2022-07-06T01:57:51;3.90;;;2.73;;
14205;SDS011;7186;48.800;9.216;2022-07-06T02:00:16;5.50;;;2.43;;
14205;SDS011;7186;48.800;9.216;2022-07-06T02:02:41;3.60;;;2.60;;
14205;SDS011;7186;48.800;9.216;2022-07-06T02:05:07;5.67;;;2.50;;
14205;SDS011;7186;48.800;9.216;2022-07-06T02:07:32;3.20;;;2.30;;
14205;SDS011;7186;48.800;9.216;2022-07-06T02:09:57;6.80;;;2.80;;
14205;SDS011;7186;48.800;9.216;2022-07-06T02:12:23;4.20;;;2.20;;
14205;SDS011;7186;48.800;9.216;2022-07-06T02:14:48;3.03;;;2.40;;
14205;SDS011;7186;48.800;9.216;2022-07-06T02:17:13;5.33;;;2.70;;
14205;SDS011;7186;48.800;9.216;2022-07-06T02:19:38;4.03;;;2.77;;
14205;SDS011;7186;48.800;9.216;2022-07-06T02:22:03;4.07;;;2.90;;
14205;SDS011;7186;48.800;9.216;2022-07-06T02:24:29;3.40;;;2.77;;
14205;SDS011;7186;48.800;9.216;2022-07-06T02:26:54;4.27;;;2.70;;
14205;SDS011;7186;48.800;9.216;2022-07-06T02:29:19;3.23;;;2.43;;
14205;SDS011;7186;48.800;9.216;2022-07-06T02:31:45;3.77;;;2.50;;
14205;SDS011;7186;48.800;9.216;2022-07-06T02:34:10;2.73;;;2.20;;
14205;SDS011;7186;48.800;9.216;2022-07-06T02:36:35;2.73;;;2.30;;
14205;SDS011;7186;48.800;9.216;2022-07-06T02:39:00;2.53;;;2.20;;
14205;SDS011;7186;48.800;9.216;2022-07-06T02:41:26;4.97;;;2.60;;
14205;SDS011;7186;48.800;9.216;2022-07-06T02:43:51;5.30;;;2.60;;
14205;SDS011;7186;48.800;9.216;2022-07-06T02:46:16;3.30;;;2.90;;
14205;SDS011;7186;48.800;9.216;2022-07-06T02:48:41;3.30;;;2.83;;
14205;SDS011;7186;48.800;9.216;2022-07-06T02:51:07;3.67;;;2.80;;
14205;SDS011;7186;48.800;9.216;2022-07-06T02:53:32;3.70;;;2.53;;
14205;SDS011;7186;48.800;9.216;2022-07-06T02:55:57;6.90;;;2.80;;
14205;SDS011;7186;48.800;9.216;2022-07-06T02:58:22;5.73;;;2.57;;
14205;SDS011;7186;48.800;9.216;2022-07-06T03:00:47;4.57;;;2.50;;
14205;SDS011;7186;48.800;9.216;2022-07-06T03:03:13;5.00;;;2.77;;
14205;SDS011;7186;48.800;9.216;2022-07-06T03:05:38;2.70;;;2.50;;
14205;SDS011;7186;48.800;9.216;2022-07-06T03:08:03;4.60;;;2.60;;
14205;SDS011;7186;48.800;9.216;2022-07-06T03:10:28;4.40;;;2.47;;
14205;SDS011;7186;48.800;9.216;2022-07-06T03:12:53;4.07;;;3.20;;
14205;SDS011;7186;48.800;9.216;2022-07-06T03:15:19;3.40;;;3.10;;
14205;SDS011;7186;48.800;9.216;2022-07-06T03:17:44;3.50;;;3.13;;
14205;SDS011;7186;48.800;9.216;2022-07-06T03:20:09;3.40;;;2.63;;
14205;SDS011;7186;48.800;9.216;2022-07-06T03:22:35;2.93;;;2.60;;
14205;SDS011;7186;48.800;9.216;2022-07-06T03:25:00;4.87;;;2.43;;
14205;SDS011;7186;48.800;9.216;2022-07-06T03:27:25;4.00;;;2.83;;
14205;SDS011;7186;48.800;9.216;2022-07-06T03:29:50;5.50;;;3.00;;
14205;SDS011;7186;48.800;9.216;2022-07-06T03:32:16;4.63;;;3.03;;
14205;SDS011;7186;48.800;9.216;2022-07-06T03:34:41;3.93;;;3.00;;
14205;SDS011;7186;48.800;9.216;2022-07-06T03:37:06;3.83;;;2.73;;
14205;SDS011;7186;48.800;9.216;2022-07-06T03:39:31;3.10;;;2.80;;
14205;SDS011;7186;48.800;9.216;2022-07-06T03:41:57;5.47;;;2.83;;
14205;SDS011;7186;48.800;9.216;2022-07-06T03:44:22;7.53;;;2.87;;
14205;SDS011;7186;48.800;9.216;2022-07-06T03:46:47;4.37;;;2.93;;
14205;SDS011;7186;48.800;9.216;2022-07-06T03:49:13;5.23;;;3.10;;
14205;SDS011;7186;48.800;9.216;2022-07-06T03:51:38;3.60;;;2.97;;
14205;SDS011;7186;48.800;9.216;2022-07-06T03:54:04;8.77;;;3.13;;
14205;SDS011;7186;48.800;9.216;2022-07-06T03:56:29;5.33;;;2.97;;
14205;SDS011;7186;48.800;9.216;2022-07-06T03:58:55;5.10;;;3.00;;
14205;SDS011;7186;48.800;9.216;2022-07-06T04:01:21;4.10;;;2.97;;
14205;SDS011;7186;48.800;9.216;2022-07-06T04:03:46;4.40;;;2.70;;
14205;SDS011;7186;48.800;9.216;2022-07-06T04:06:11;4.70;;;3.17;;
14205;SDS011;7186;48.800;9.216;2022-07-06T04:08:36;3.37;;;3.07;;
14205;SDS011;7186;48.800;9.216;2022-07-06T04:11:02;4.67;;;3.20;;
14205;SDS011;7186;48.800;9.216;2022-07-06T04:13:27;5.00;;;3.00;;
14205;SDS011;7186;48.800;9.216;2022-07-06T04:15:52;4.90;;;3.63;;
14205;SDS011;7186;48.800;9.216;2022-07-06T04:18:17;5.53;;;3.23;;
14205;SDS011;7186;48.800;9.216;2022-07-06T04:20:43;4.60;;;3.20;;
14205;SDS011;7186;48.800;9.216;2022-07-06T04:23:08;5.40;;;4.10;;
14205;SDS011;7186;48.800;9.216;2022-07-06T04:25:33;3.73;;;3.40;;
14205;SDS011;7186;48.800;9.216;2022-07-06T04:27:59;6.17;;;3.60;;
14205;SDS011;7186;48.800;9.216;2022-07-06T04:30:24;5.17;;;3.70;;
14205;SDS011;7186;48.800;9.216;2022-07-06T04:32:49;4.17;;;3.43;;
14205;SDS011;7186;48.800;9.216;2022-07-06T04:35:14;5.90;;;3.50;;
14205;SDS011;7186;48.800;9.216;2022-07-06T04:37:40;4.60;;;3.80;;
14205;SDS011;7186;48.800;9.216;2022-07-06T04:40:05;3.77;;;3.43;;
14205;SDS011;7186;48.800;9.216;2022-07-06T04:42:31;4.53;;;3.53;;
14205;SDS011;7186;48.800;9.216;2022-07-06T04:44:56;3.97;;;3.60;;
14205;SDS011;7186;48.800;9.216;2022-07-06T04:47:21;5.97;;;3.73;;
14205;SDS011;7186;48.800;9.216;2022-07-06T04:49:46;4.00;;;3.50;;
14205;SDS011;7186;48.800;9.216;2022-07-06T04:52:15;6.87;;;3.90;;
14205;SDS011;7186;48.800;9.216;2022-07-06T04:54:40;4.07;;;3.67;;
14205;SDS011;7186;48.800;9.216;2022-07-06T04:57:05;6.03;;;4.00;;
14205;SDS011;7186;48.800;9.216;2022-07-06T04:59:30;4.80;;;3.83;;
14205;SDS011;7186;48.800;9.216;2022-07-06T05:01:56;7.27;;;3.97;;
14205;SDS011;7186;48.800;9.216;2022-07-06T05:04:21;4.93;;;4.23;;
14205;SDS011;7186;48.800;9.216;2022-07-06T05:06:47;6.00;;;4.00;;
14205;SDS011;7186;48.800;9.216;2022-07-06T05:09:12;8.10;;;4.17;;
14205;SDS011;7186;48.800;9.216;2022-07-06T05:11:38;6.17;;;4.20;;
14205;SDS011;7186;48.800;9.216;2022-07-06T05:14:03;5.37;;;3.93;;
14205;SDS011;7186;48.800;9.216;2022-07-06T05:16:28;13.70;;;4.27;;
14205;SDS011;7186;48.800;9.216;2022-07-06T05:18:54;6.43;;;4.23;;
14205;SDS011;7186;48.800;9.216;2022-07-06T05:21:19;5.17;;;4.57;;
14205;SDS011;7186;48.800;9.216;2022-07-06T05:23:44;8.07;;;4.27;;
14205;SDS011;7186;48.800;9.216;2022-07-06T05:26:09;5.90;;;4.03;;
14205;SDS011;7186;48.800;9.216;2022-07-06T05:28:35;5.27;;;3.87;;
14205;SDS011;7186;48.800;9.216;2022-07-06T05:31:00;5.93;;;3.67;;
14205;SDS011;7186;48.800;9.216;2022-07-06T05:33:27;6.43;;;3.90;;
14205;SDS011;7186;48.800;9.216;2022-07-06T05:35:52;5.90;;;4.03;;
14205;SDS011;7186;48.800;9.216;2022-07-06T05:38:17;6.73;;;3.87;;
14205;SDS011;7186;48.800;9.216;2022-07-06T05:40:43;4.80;;;3.90;;
14205;SDS011;7186;48.800;9.216;2022-07-06T05:43:09;4.53;;;3.47;;
14205;SDS011;7186;48.800;9.216;2022-07-06T05:45:34;4.87;;;3.83;;
14205;SDS011;7186;48.800;9.216;2022-07-06T05:48:00;7.37;;;3.90;;
14205;SDS011;7186;48.800;9.216;2022-07-06T05:50:43;6.93;;;3.57;;
14205;SDS011;7186;48.800;9.216;2022-07-06T05:53:08;4.73;;;3.40;;
14205;SDS011;7186;48.800;9.216;2022-07-06T05:55:34;5.63;;;3.70;;
14205;SDS011;7186;48.800;9.216;2022-07-06T05:58:00;8.50;;;3.70;;
14205;SDS011;7186;48.800;9.216;2022-07-06T06:00:26;4.20;;;3.63;;
14205;SDS011;7186;48.800;9.216;2022-07-06T06:02:51;4.97;;;3.80;;
14205;SDS011;7186;48.800;9.216;2022-07-06T06:05:17;7.40;;;4.00;;
14205;SDS011;7186;48.800;9.216;2022-07-06T06:07:43;8.10;;;3.90;;
14205;SDS011;7186;48.800;9.216;2022-07-06T06:10:12;7.57;;;3.70;;
14205;SDS011;7186;48.800;9.216;2022-07-06T06:12:37;5.70;;;3.73;;
14205;SDS011;7186;48.800;9.216;2022-07-06T06:15:03;6.20;;;3.73;;
14205;SDS011;7186;48.800;9.216;2022-07-06T06:17:30;5.17;;;3.70;;
14205;SDS011;7186;48.800;9.216;2022-07-06T06:19:55;5.33;;;3.37;;
14205;SDS011;7186;48.800;9.216;2022-07-06T06:22:21;8.87;;;3.50;;
14205;SDS011;7186;48.800;9.216;2022-07-06T06:24:47;8.73;;;4.10;;
14205;SDS011;7186;48.800;9.216;2022-07-06T06:27:13;4.63;;;3.33;;
14205;SDS011;7186;48.800;9.216;2022-07-06T06:29:38;3.77;;;3.20;;
14205;SDS011;7186;48.800;9.216;2022-07-06T06:32:04;3.93;;;3.03;;
14205;SDS011;7186;48.800;9.216;2022-07-06T06:34:32;4.10;;;3.43;;
14205;SDS011;7186;48.800;9.216;2022-07-06T06:36:57;5.00;;;3.60;;
14205;SDS011;7186;48.800;9.216;2022-07-06T06:39:23;5.63;;;3.27;;
14205;SDS011;7186;48.800;9.216;2022-07-06T06:41:48;4.37;;;3.03;;
14205;SDS011;7186;48.800;9.216;2022-07-06T06:44:13;4.43;;;3.27;;
14205;SDS011;7186;48.800;9.216;2022-07-06T06:46:39;6.10;;;3.33;;
14205;SDS011;7186;48.800;9.216;2022-07-06T06:49:04;6.73;;;3.23;;
14205;SDS011;7186;48.800;9.216;2022-07-06T06:51:30;3.77;;;3.20;;
14205;SDS011;7186;48.800;9.216;2022-07-06T06:53:55;5.67;;;3.63;;
14205;SDS011;7186;48.800;9.216;2022-07-06T06:56:21;4.57;;;3.60;;
14205;SDS011;7186;48.800;9.216;2022-07-06T06:58:46;3.90;;;3.50;;
14205;SDS011;7186;48.800;9.216;2022-07-06T07:01:11;6.13;;;3.57;;
14205;SDS011;7186;48.800;9.216;2022-07-06T07:03:36;4.17;;;3.00;;
14205;SDS011;7186;48.800;9.216;2022-07-06T07:06:02;3.83;;;3.43;;
14205;SDS011;7186;48.800;9.216;2022-07-06T07:08:27;3.40;;;3.03;;
14205;SDS011;7186;48.800;9.216;2022-07-06T07:10:52;5.03;;;3.60;;
14205;SDS011;7186;48.800;9.216;2022-07-06T07:13:18;3.33;;;3.03;;
14205;SDS011;7186;48.800;9.216;2022-07-06T07:15:43;4.50;;;3.20;;
14205;SDS011;7186;48.800;9.216;2022-07-06T07:18:08;3.90;;;3.00;;
14205;SDS011;7186;48.800;9.216;2022-07-06T07:20:34;4.63;;;3.37;;
14205;SDS011;7186;48.800;9.216;2022-07-06T07:23:00;4.20;;;3.10;;
14205;SDS011;7186;48.800;9.216;2022-07-06T07:25:26;3.50;;;3.07;;
14205;SDS011;7186;48.800;9.216;2022-07-06T07:27:51;5.17;;;3.50;;
14205;SDS011;7186;48.800;9.216;2022-07-06T07:30:16;6.97;;;3.30;;
14205;SDS011;7186;48.800;9.216;2022-07-06T07:32:42;6.50;;;3.60;;
14205;SDS011;7186;48.800;9.216;2022-07-06T07:35:07;4.97;;;3.33;;
14205;SDS011;7186;48.800;9.216;2022-07-06T07:37:32;4.53;;;3.50;;
14205;SDS011;7186;48.800;9.216;2022-07-06T07:39:58;4.03;;;3.23;;
14205;SDS011;7186;48.800;9.216;2022-07-06T07:42:23;5.20;;;3.40;;
14205;SDS011;7186;48.800;9.216;2022-07-06T07:44:49;4.73;;;3.73;;
14205;SDS011;7186;48.800;9.216;2022-07-06T07:47:14;5.03;;;3.23;;
14205;SDS011;7186;48.800;9.216;2022-07-06T07:49:39;4.57;;;3.30;;
14205;SDS011;7186;48.800;9.216;2022-07-06T07:52:05;6.87;;;3.40;;
14205;SDS011;7186;48.800;9.216;2022-07-06T07:54:30;6.20;;;3.80;;
14205;SDS011;7186;48.800;9.216;2022-07-06T07:56:55;4.10;;;3.30;;
14205;SDS011;7186;48.800;9.216;2022-07-06T07:59:21;3.73;;;3.30;;
14205;SDS011;7186;48.800;9.216;2022-07-06T08:01:46;6.53;;;3.67;;
14205;SDS011;7186;48.800;9.216;2022-07-06T08:04:11;5.60;;;3.40;;
14205;SDS011;7186;48.800;9.216;2022-07-06T08:06:37;5.60;;;3.63;;
14205;SDS011;7186;48.800;9.216;2022-07-06T08:09:02;8.83;;;3.50;;
14205;SDS011;7186;48.800;9.216;2022-07-06T08:11:29;4.63;;;3.40;;
14205;SDS011;7186;48.800;9.216;2022-07-06T08:13:54;5.80;;;3.63;;
14205;SDS011;7186;48.800;9.216;2022-07-06T08:16:20;6.93;;;3.40;;
14205;SDS011;7186;48.800;9.216;2022-07-06T08:18:45;8.47;;;3.60;;
14205;SDS011;7186;48.800;9.216;2022-07-06T08:21:10;8.93;;;3.60;;
14205;SDS011;7186;48.800;9.216;2022-07-06T08:23:36;5.57;;;3.43;;
14205;SDS011;7186;48.800;9.216;2022-07-06T08:26:01;6.17;;;3.20;;
14205;SDS011;7186;48.800;9.216;2022-07-06T08:28:27;6.27;;;3.60;;
14205;SDS011;7186;48.800;9.216;2022-07-06T08:30:52;3.27;;;2.97;;
14205;SDS011;7186;48.800;9.216;2022-07-06T08:33:19;4.17;;;3.03;;
14205;SDS011;7186;48.800;9.216;2022-07-06T08:35:44;5.10;;;3.37;;
14205;SDS011;7186;48.800;9.216;2022-07-06T08:38:10;4.17;;;3.77;;
14205;SDS011;7186;48.800;9.216;2022-07-06T08:40:35;4.23;;;3.83;;
14205;SDS011;7186;48.800;9.216;2022-07-06T08:43:03;4.27;;;3.80;;
14205;SDS011;7186;48.800;9.216;2022-07-06T08:45:29;6.83;;;3.53;;
14205;SDS011;7186;48.800;9.216;2022-07-06T08:47:55;8.60;;;4.43;;
14205;SDS011;7186;48.800;9.216;2022-07-06T08:50:22;4.43;;;3.50;;
14205;SDS011;7186;48.800;9.216;2022-07-06T08:52:48;5.73;;;3.73;;
14205;SDS011;7186;48.800;9.216;2022-07-06T08:55:14;6.80;;;3.83;;
14205;SDS011;7186;48.800;9.216;2022-07-06T08:57:39;5.00;;;3.57;;
14205;SDS011;7186;48.800;9.216;2022-07-06T09:00:07;8.73;;;3.70;;
14205;SDS011;7186;48.800;9.216;2022-07-06T09:02:32;8.27;;;5.70;;
14205;SDS011;7186;48.800;9.216;2022-07-06T09:04:58;7.37;;;4.03;;
14205;SDS011;7186;48.800;9.216;2022-07-06T09:07:27;3.80;;;3.47;;
14205;SDS011;7186;48.800;9.216;2022-07-06T09:09:54;4.10;;;3.40;;
14205;SDS011;7186;48.800;9.216;2022-07-06T09:12:19;5.67;;;3.50;;
14205;SDS011;7186;48.800;9.216;2022-07-06T09:14:44;9.53;;;3.57;;
14205;SDS011;7186;48.800;9.216;2022-07-06T09:17:09;8.67;;;4.10;;
14205;SDS011;7186;48.800;9.216;2022-07-06T09:19:36;4.73;;;3.60;;
14205;SDS011;7186;48.800;9.216;2022-07-06T09:22:02;5.10;;;3.40;;
14205;SDS011;7186;48.800;9.216;2022-07-06T09:24:27;6.17;;;3.13;;
14205;SDS011;7186;48.800;9.216;2022-07-06T09:26:55;4.50;;;3.50;;
14205;SDS011;7186;48.800;9.216;2022-07-06T09:29:29;10.23;;;3.50;;
14205;SDS011;7186;48.800;9.216;2022-07-06T09:31:55;4.37;;;3.67;;
14205;SDS011;7186;48.800;9.216;2022-07-06T09:34:20;3.87;;;3.40;;
14205;SDS011;7186;48.800;9.216;2022-07-06T09:36:46;5.40;;;3.33;;
14205;SDS011;7186;48.800;9.216;2022-07-06T09:39:25;5.67;;;3.33;;
14205;SDS011;7186;48.800;9.216;2022-07-06T09:41:52;4.10;;;3.27;;
14205;SDS011;7186;48.800;9.216;2022-07-06T09:44:27;6.47;;;3.70;;
14205;SDS011;7186;48.800;9.216;2022-07-06T09:46:55;4.07;;;3.40;;
14205;SDS011;7186;48.800;9.216;2022-07-06T09:49:21;5.83;;;3.70;;
14205;SDS011;7186;48.800;9.216;2022-07-06T09:51:48;5.27;;;3.70;;
14205;SDS011;7186;48.800;9.216;2022-07-06T09:54:14;6.07;;;3.80;;
14205;SDS011;7186;48.800;9.216;2022-07-06T09:56:40;4.53;;;3.17;;
14205;SDS011;7186;48.800;9.216;2022-07-06T09:59:12;6.03;;;3.30;;
14205;SDS011;7186;48.800;9.216;2022-07-06T10:01:38;6.53;;;3.50;;
14205;SDS011;7186;48.800;9.216;2022-07-06T10:04:04;3.40;;;3.10;;
14205;SDS011;7186;48.800;9.216;2022-07-06T10:06:29;6.77;;;3.40;;
14205;SDS011;7186;48.800;9.216;2022-07-06T10:08:55;5.17;;;3.37;;
14205;SDS011;7186;48.800;9.216;2022-07-06T10:11:22;5.00;;;3.40;;
14205;SDS011;7186;48.800;9.216;2022-07-06T10:13:48;9.37;;;3.80;;
14205;SDS011;7186;48.800;9.216;2022-07-06T10:16:13;4.23;;;3.23;;
14205;SDS011;7186;48.800;9.216;2022-07-06T10:18:39;7.07;;;3.30;;
14205;SDS011;7186;48.800;9.216;2022-07-06T10:21:05;4.23;;;3.00;;
14205;SDS011;7186;48.800;9.216;2022-07-06T10:23:31;4.80;;;3.20;;
14205;SDS011;7186;48.800;9.216;2022-07-06T10:25:57;3.20;;;2.90;;
14205;SDS011;7186;48.800;9.216;2022-07-06T10:28:22;6.53;;;3.00;;
14205;SDS011;7186;48.800;9.216;2022-07-06T10:30:47;5.47;;;3.63;;
14205;SDS011;7186;48.800;9.216;2022-07-06T10:33:13;9.30;;;3.80;;
14205;SDS011;7186;48.800;9.216;2022-07-06T10:35:39;7.83;;;3.47;;
14205;SDS011;7186;48.800;9.216;2022-07-06T10:38:06;6.13;;;3.57;;
14205;SDS011;7186;48.800;9.216;2022-07-06T10:40:32;5.23;;;3.10;;
14205;SDS011;7186;48.800;9.216;2022-07-06T10:43:16;5.67;;;3.47;;
14205;SDS011;7186;48.800;9.216;2022-07-06T10:50:38;5.17;;;3.10;;
14205;SDS011;7186;48.800;9.216;2022-07-06T10:53:09;3.40;;;3.10;;
14205;SDS011;7186;48.800;9.216;2022-07-06T10:55:36;5.87;;;3.23;;
14205;SDS011;7186;48.800;9.216;2022-07-06T10:58:01;6.17;;;3.70;;
14205;SDS011;7186;48.800;9.216;2022-07-06T11:05:58;6.07;;;3.43;;
14205;SDS011;7186;48.800;9.216;2022-07-06T11:08:40;5.53;;;3.27;;
14205;SDS011;7186;48.800;9.216;2022-07-06T11:16:15;5.33;;;3.40;;
14205;SDS011;7186;48.800;9.216;2022-07-06T11:18:50;4.07;;;3.03;;
14205;SDS011;7186;48.800;9.216;2022-07-06T11:21:24;5.97;;;3.37;;
14205;SDS011;7186;48.800;9.216;2022-07-06T11:23:56;6.00;;;3.57;;
14205;SDS011;7186;48.800;9.216;2022-07-06T11:26:21;4.00;;;3.10;;
14205;SDS011;7186;48.800;9.216;2022-07-06T11:28:47;4.40;;;3.37;;
14205;SDS011;7186;48.800;9.216;2022-07-06T11:31:13;6.13;;;3.07;;
14205;SDS011;7186;48.800;9.216;2022-07-06T11:33:39;6.50;;;3.60;;
14205;SDS011;7186;48.800;9.216;2022-07-06T11:36:17;8.17;;;3.50;;
14205;SDS011;7186;48.800;9.216;2022-07-06T11:38:43;7.17;;;3.10;;
14205;SDS011;7186;48.800;9.216;2022-07-06T11:41:09;8.57;;;3.50;;
14205;SDS011;7186;48.800;9.216;2022-07-06T11:43:36;3.50;;;3.10;;
14205;SDS011;7186;48.800;9.216;2022-07-06T11:46:02;3.77;;;3.43;;
14205;SDS011;7186;48.800;9.216;2022-07-06T11:48:27;6.90;;;3.23;;
14205;SDS011;7186;48.800;9.216;2022-07-06T11:51:02;5.03;;;3.30;;
14205;SDS011;7186;48.800;9.216;2022-07-06T11:53:28;7.07;;;3.20;;
14205;SDS011;7186;48.800;9.216;2022-07-06T11:55:53;5.97;;;3.30;;
14205;SDS011;7186;48.800;9.216;2022-07-06T11:58:20;6.43;;;2.97;;
14205;SDS011;7186;48.800;9.216;2022-07-06T12:01:02;4.13;;;3.27;;
14205;SDS011;7186;48.800;9.216;2022-07-06T12:03:28;7.53;;;3.73;;
14205;SDS011;7186;48.800;9.216;2022-07-06T12:05:53;6.17;;;4.17;;
14205;SDS011;7186;48.800;9.216;2022-07-06T12:08:18;4.97;;;3.50;;
14205;SDS011;7186;48.800;9.216;2022-07-06T12:10:44;5.50;;;3.43;;
14205;SDS011;7186;48.800;9.216;2022-07-06T12:13:09;5.30;;;3.40;;
14205;SDS011;7186;48.800;9.216;2022-07-06T12:15:34;4.70;;;3.63;;
14205;SDS011;7186;48.800;9.216;2022-07-06T12:17:59;3.80;;;3.37;;
14205;SDS011;7186;48.800;9.216;2022-07-06T12:20:24;6.57;;;3.67;;
14205;SDS011;7186;48.800;9.216;2022-07-06T12:23:00;7.30;;;3.50;;
14205;SDS011;7186;48.800;9.216;2022-07-06T12:25:35;5.43;;;3.70;;
14205;SDS011;7186;48.800;9.216;2022-07-06T12:28:00;6.63;;;3.67;;
14205;SDS011;7186;48.800;9.216;2022-07-06T12:30:25;3.80;;;3.37;;
14205;SDS011;7186;48.800;9.216;2022-07-06T12:35:35;5.07;;;3.53;;
14205;SDS011;7186;48.800;9.216;2022-07-06T12:38:00;7.63;;;4.10;;
14205;SDS011;7186;48.800;9.216;2022-07-06T12:40:26;4.43;;;3.60;;
14205;SDS011;7186;48.800;9.216;2022-07-06T12:42:52;7.40;;;3.57;;
14205;SDS011;7186;48.800;9.216;2022-07-06T12:45:18;5.87;;;3.73;;
14205;SDS011;7186;48.800;9.216;2022-07-06T12:50:33;4.33;;;3.40;;
14205;SDS011;7186;48.800;9.216;2022-07-06T12:52:58;6.60;;;3.27;;
14205;SDS011;7186;48.800;9.216;2022-07-06T12:55:27;6.17;;;3.20;;
14205;SDS011;7186;48.800;9.216;2022-07-06T12:57:53;5.63;;;3.17;;
14205;SDS011;7186;48.800;9.216;2022-07-06T13:00:18;6.03;;;3.27;;
14205;SDS011;7186;48.800;9.216;2022-07-06T13:02:45;4.73;;;3.70;;
14205;SDS011;7186;48.800;9.216;2022-07-06T13:05:11;6.77;;;3.20;;
14205;SDS011;7186;48.800;9.216;2022-07-06T13:07:37;4.10;;;2.77;;
14205;SDS011;7186;48.800;9.216;2022-07-06T13:10:06;5.03;;;3.23;;
14205;SDS011;7186;48.800;9.216;2022-07-06T13:12:32;4.60;;;3.30;;
14205;SDS011;7186;48.800;9.216;2022-07-06T13:14:57;4.80;;;2.97;;
14205;SDS011;7186;48.800;9.216;2022-07-06T13:17:23;4.83;;;3.60;;
14205;SDS011;7186;48.800;9.216;2022-07-06T13:19:48;7.33;;;3.20;;
14205;SDS011;7186;48.800;9.216;2022-07-06T13:22:13;4.13;;;3.27;;
14205;SDS011;7186;48.800;9.216;2022-07-06T13:24:39;4.83;;;2.90;;
14205;SDS011;7186;48.800;9.216;2022-07-06T13:27:04;8.17;;;2.87;;
14205;SDS011;7186;48.800;9.216;2022-07-06T13:29:29;5.83;;;3.60;;
14205;SDS011;7186;48.800;9.216;2022-07-06T13:31:55;4.90;;;3.20;;
14205;SDS011;7186;48.800;9.216;2022-07-06T13:34:20;4.37;;;2.83;;
14205;SDS011;7186;48.800;9.216;2022-07-06T13:36:45;4.63;;;3.10;;
14205;SDS011;7186;48.800;9.216;2022-07-06T13:39:11;5.60;;;3.20;;
14205;SDS011;7186;48.800;9.216;2022-07-06T13:41:36;5.67;;;3.03;;
14205;SDS011;7186;48.800;9.216;2022-07-06T13:44:02;5.40;;;3.10;;
14205;SDS011;7186;48.800;9.216;2022-07-06T13:46:27;4.90;;;3.37;;
14205;SDS011;7186;48.800;9.216;2022-07-06T13:48:53;6.70;;;2.60;;
14205;SDS011;7186;48.800;9.216;2022-07-06T13:51:18;9.10;;;3.27;;
14205;SDS011;7186;48.800;9.216;2022-07-06T13:53:44;3.37;;;3.07;;
14205;SDS011;7186;48.800;9.216;2022-07-06T13:56:09;9.83;;;3.30;;
14205;SDS011;7186;48.800;9.216;2022-07-06T13:58:34;5.30;;;2.87;;
14205;SDS011;7186;48.800;9.216;2022-07-06T14:01:00;5.13;;;3.20;;
14205;SDS011;7186;48.800;9.216;2022-07-06T14:03:25;3.17;;;2.97;;
14205;SDS011;7186;48.800;9.216;2022-07-06T14:05:54;3.93;;;2.90;;
14205;SDS011;7186;48.800;9.216;2022-07-06T14:08:20;5.57;;;3.17;;
14205;SDS011;7186;48.800;9.216;2022-07-06T14:10:45;5.73;;;3.30;;
14205;SDS011;7186;48.800;9.216;2022-07-06T14:13:10;10.27;;;3.17;;
14205;SDS011;7186;48.800;9.216;2022-07-06T14:15:35;6.17;;;2.97;;
14205;SDS011;7186;48.800;9.216;2022-07-06T14:18:01;5.40;;;2.80;;
14205;SDS011;7186;48.800;9.216;2022-07-06T14:20:26;2.90;;;2.60;;
14205;SDS011;7186;48.800;9.216;2022-07-06T14:22:51;3.33;;;2.53;;
14205;SDS011;7186;48.800;9.216;2022-07-06T14:25:16;5.00;;;2.93;;
14205;SDS011;7186;48.800;9.216;2022-07-06T14:27:42;3.47;;;2.63;;
14205;SDS011;7186;48.800;9.216;2022-07-06T14:30:07;4.13;;;2.27;;
14205;SDS011;7186;48.800;9.216;2022-07-06T14:32:32;5.37;;;2.80;;
14205;SDS011;7186;48.800;9.216;2022-07-06T14:34:58;3.90;;;2.77;;
14205;SDS011;7186;48.800;9.216;2022-07-06T14:37:23;3.33;;;2.80;;
14205;SDS011;7186;48.800;9.216;2022-07-06T14:39:48;4.57;;;2.80;;
14205;SDS011;7186;48.800;9.216;2022-07-06T14:42:14;3.20;;;2.60;;
14205;SDS011;7186;48.800;9.216;2022-07-06T14:44:39;3.63;;;2.40;;
14205;SDS011;7186;48.800;9.216;2022-07-06T14:47:04;5.67;;;2.67;;
14205;SDS011;7186;48.800;9.216;2022-07-06T14:49:30;4.17;;;2.60;;
14205;SDS011;7186;48.800;9.216;2022-07-06T14:51:55;5.10;;;2.80;;
14205;SDS011;7186;48.800;9.216;2022-07-06T14:54:22;4.57;;;2.60;;
14205;SDS011;7186;48.800;9.216;2022-07-06T14:56:47;4.10;;;2.60;;
14205;SDS011;7186;48.800;9.216;2022-07-06T14:59:13;3.67;;;2.80;;
14205;SDS011;7186;48.800;9.216;2022-07-06T15:01:38;4.83;;;2.80;;
14205;SDS011;7186;48.800;9.216;2022-07-06T15:04:03;3.73;;;2.83;;
14205;SDS011;7186;48.800;9.216;2022-07-06T15:06:29;4.90;;;2.60;;
14205;SDS011;7186;48.800;9.216;2022-07-06T15:08:54;3.73;;;2.53;;
14205;SDS011;7186;48.800;9.216;2022-07-06T15:11:19;3.77;;;2.83;;
14205;SDS011;7186;48.800;9.216;2022-07-06T15:13:44;3.13;;;2.60;;